createdAt,value
2023-04-21T00:00:23.731Z,12.2714
2023-04-21T00:01:31.911Z,11.9643
2023-04-21T00:02:40.203Z,11.8643
2023-04-21T00:03:48.126Z,11.5143
2023-04-21T00:04:56.225Z,10.9214
2023-04-21T00:06:04.014Z,11.5643
2023-04-21T00:07:12.368Z,12.3571
2023-04-21T00:08:20.282Z,11.4143
2023-04-21T00:09:28.392Z,13.3357
2023-04-21T00:10:36.443Z,12.9357
2023-04-21T00:11:44.476Z,13.1929
2023-04-21T00:12:52.532Z,13.3500
2023-04-21T00:14:00.719Z,12.7571
2023-04-21T00:15:08.640Z,12.2714
2023-04-21T00:16:16.791Z,13.8214
2023-04-21T00:17:24.682Z,13.3000
2023-04-21T00:18:32.822Z,14.2071
2023-04-21T00:19:40.849Z,13.3214
2023-04-21T00:20:48.928Z,13.8714
2023-04-21T00:21:57.065Z,13.1714
2023-04-21T00:23:04.931Z,13.6714
2023-04-21T00:24:13.458Z,14.1643
2023-04-21T00:25:21.149Z,14.4786
2023-04-21T00:26:29.240Z,12.9143
2023-04-21T00:27:37.399Z,12.9714
2023-04-21T00:28:45.259Z,14.3214
2023-04-21T00:29:53.411Z,12.8500
2023-04-21T00:31:01.565Z,13.1143
2023-04-21T00:32:09.543Z,13.4071
2023-04-21T00:33:17.638Z,14.1786
2023-04-21T00:34:25.796Z,12.4714
2023-04-21T00:35:33.730Z,12.8571
2023-04-21T00:36:42.084Z,12.9286
2023-04-21T00:37:49.833Z,11.9786
2023-04-21T00:38:58.004Z,12.8357
2023-04-21T00:40:06.018Z,11.2929
2023-04-21T00:41:14.003Z,12.5357
2023-04-21T00:42:22.121Z,12.8929
2023-04-21T00:43:30.300Z,11.1286
2023-04-21T00:44:38.188Z,10.5714
2023-04-21T00:45:46.303Z,11.6071
2023-04-21T00:46:54.362Z,13.2786
2023-04-21T00:48:02.392Z,13.3500
2023-04-21T00:49:10.483Z,11.6429
2023-04-21T00:50:18.590Z,11.8857
2023-04-21T00:51:26.447Z,10.8857
2023-04-21T00:52:34.739Z,12.2857
2023-04-21T00:53:42.738Z,10.9714
2023-04-21T00:54:50.717Z,11.9143
2023-04-21T00:55:58.886Z,12.7786
2023-04-21T00:57:06.714Z,12.6857
2023-04-21T00:58:14.910Z,12.6214
2023-04-21T00:59:22.965Z,11.7786
2023-04-21T01:00:30.940Z,12.0571
2023-04-21T01:01:39.267Z,11.7214
2023-04-21T01:02:47.264Z,12.0643
2023-04-21T01:03:55.329Z,10.8357
2023-04-21T01:05:03.273Z,11.9357
2023-04-21T01:06:11.221Z,10.5429
2023-04-21T01:07:19.447Z,10.7357
2023-04-21T01:08:27.460Z,11.6643
2023-04-21T01:09:35.558Z,11.3286
2023-04-21T01:10:43.761Z,11.0571
2023-04-21T01:11:51.487Z,10.7071
2023-04-21T01:12:59.746Z,10.4643
2023-04-21T01:14:07.745Z,11.3143
2023-04-21T01:15:15.790Z,12.8071
2023-04-21T01:16:23.921Z,11.8286
2023-04-21T01:17:31.805Z,10.8857
2023-04-21T01:18:40.054Z,10.9286
2023-04-21T01:19:48.033Z,10.6071
2023-04-21T01:20:56.225Z,11.1500
2023-04-21T01:22:04.147Z,10.8500
2023-04-21T01:23:12.240Z,10.9643
2023-04-21T01:24:20.294Z,10.3357
2023-04-21T01:25:28.497Z,10.4571
2023-04-21T01:26:36.389Z,10.4500
2023-04-21T01:27:44.461Z,10.7357
2023-04-21T01:28:52.411Z,10.5929
2023-04-21T01:30:00.624Z,10.6643
2023-04-21T01:31:08.758Z,10.8571
2023-04-21T01:32:16.830Z,11.0286
2023-04-21T01:33:24.717Z,11.4143
2023-04-21T01:34:32.786Z,11.1357
2023-04-21T01:35:40.966Z,10.3643
2023-04-21T01:36:48.932Z,10.2714
2023-04-21T01:37:56.942Z,9.9357
2023-04-21T01:39:05.123Z,10.0357
2023-04-21T01:40:13.083Z,9.7357
2023-04-21T01:41:21.207Z,9.9786
2023-04-21T01:42:29.211Z,10.1714
2023-04-21T01:43:37.265Z,9.4714
2023-04-21T01:44:45.308Z,9.6143
2023-04-21T01:45:53.380Z,9.8857
2023-04-21T01:47:01.486Z,10.0643
2023-04-21T01:48:09.655Z,9.7286
2023-04-21T01:49:17.587Z,9.4571
2023-04-21T01:50:25.693Z,10.0571
2023-04-21T01:51:33.663Z,10.1357
2023-04-21T01:52:41.863Z,9.9786
2023-04-21T01:53:49.660Z,9.8286
2023-04-21T01:54:57.933Z,9.7643
2023-04-21T01:56:05.904Z,9.9286
2023-04-21T01:57:14.157Z,9.8714
2023-04-21T01:58:22.109Z,9.9571
2023-04-21T01:59:30.005Z,9.8571
2023-04-21T02:00:38.033Z,9.7214
2023-04-21T02:01:46.274Z,9.9929
2023-04-21T02:02:54.355Z,10.3500
2023-04-21T02:04:02.608Z,10.0571
2023-04-21T02:05:10.390Z,9.6143
2023-04-21T02:06:18.332Z,10.2000
2023-04-21T02:07:26.830Z,9.6857
2023-04-21T02:08:34.674Z,11.3643
2023-04-21T02:09:42.712Z,10.1500
2023-04-21T02:10:50.643Z,10.6357
2023-04-21T02:11:58.748Z,10.4714
2023-04-21T02:13:06.825Z,9.6714
2023-04-21T02:14:14.879Z,9.8571
2023-04-21T02:15:22.924Z,10.5286
2023-04-21T02:16:30.913Z,10.7143
2023-04-21T02:17:38.987Z,10.7286
2023-04-21T02:18:47.119Z,9.8357
2023-04-21T02:19:55.195Z,10.1000
2023-04-21T02:21:03.281Z,10.1929
2023-04-21T02:22:11.303Z,10.8643
2023-04-21T02:23:19.388Z,10.6357
2023-04-21T02:24:27.420Z,10.8786
2023-04-21T02:25:35.601Z,11.1571
2023-04-21T02:26:43.644Z,10.4143
2023-04-21T02:27:51.578Z,10.1857
2023-04-21T02:28:59.781Z,10.7429
2023-04-21T02:30:07.763Z,11.3714
2023-04-21T02:31:15.816Z,11.1857
2023-04-21T02:32:26.217Z,11.1643
2023-04-21T02:33:31.898Z,11.3143
2023-04-21T02:38:40.384Z,10.8286
2023-04-21T02:39:46.211Z,11.7643
2023-04-21T02:40:54.234Z,12.1286
2023-04-21T02:42:02.205Z,12.9571
2023-04-21T02:43:10.379Z,13.6929
2023-04-21T02:44:18.368Z,14.1071
2023-04-21T02:45:26.665Z,12.6571
2023-04-21T02:46:34.635Z,11.9786
2023-04-21T02:47:42.523Z,12.4357
2023-04-21T02:48:50.675Z,11.6786
2023-04-21T02:49:58.965Z,11.3643
2023-04-21T02:51:06.812Z,11.2857
2023-04-21T02:52:14.873Z,10.6143
2023-04-21T02:53:22.931Z,10.3000
2023-04-21T02:54:31.406Z,9.6571
2023-04-21T02:55:39.056Z,9.5214
2023-04-21T02:56:47.099Z,8.9214
2023-04-21T02:57:55.166Z,9.2714
2023-04-21T02:59:03.223Z,9.4714
2023-04-21T03:00:11.375Z,9.4500
2023-04-21T03:01:19.400Z,8.9214
2023-04-21T03:02:27.895Z,9.2571
2023-04-21T03:03:35.389Z,9.1786
2023-04-21T03:04:43.417Z,9.1429
2023-04-21T03:05:51.601Z,9.0786
2023-04-21T03:06:59.704Z,9.1214
2023-04-21T03:08:07.761Z,9.3857
2023-04-21T03:09:15.811Z,9.8143
2023-04-21T03:10:23.671Z,9.4857
2023-04-21T03:11:31.911Z,9.4500
2023-04-21T03:12:40.071Z,9.1929
2023-04-21T03:13:47.947Z,9.7357
2023-04-21T03:14:56.113Z,10.1786
2023-04-21T03:16:04.038Z,9.5714
2023-04-21T03:17:12.159Z,9.4857
2023-04-21T03:18:20.209Z,9.8929
2023-04-21T03:19:28.314Z,9.5500
2023-04-21T03:20:36.409Z,9.2571
2023-04-21T03:21:44.388Z,8.7929
2023-04-21T03:22:52.486Z,9.1286
2023-04-21T03:24:00.511Z,9.4929
2023-04-21T03:25:08.592Z,9.3357
2023-04-21T03:26:16.703Z,9.4143
2023-04-21T03:27:24.554Z,9.4143
2023-04-21T03:28:32.735Z,9.9000
2023-04-21T03:29:40.837Z,10.1000
2023-04-21T03:30:48.860Z,10.3286
2023-04-21T03:31:57.052Z,10.6286
2023-04-21T03:33:04.941Z,10.1429
2023-04-21T03:34:13.176Z,10.0857
2023-04-21T03:35:21.129Z,9.5714
2023-04-21T03:36:29.176Z,9.4143
2023-04-21T03:37:37.196Z,9.4929
2023-04-21T03:38:45.303Z,9.8143
2023-04-21T03:39:53.349Z,9.7643
2023-04-21T03:41:01.703Z,10.0571
2023-04-21T03:42:09.666Z,10.3357
2023-04-21T03:43:17.595Z,9.7786
2023-04-21T03:44:25.708Z,10.2357
2023-04-21T03:45:33.729Z,10.5000
2023-04-21T03:46:41.665Z,10.3929
2023-04-21T03:47:49.847Z,10.3357
2023-04-21T03:48:57.966Z,10.3429
2023-04-21T03:50:05.972Z,10.3500
2023-04-21T03:51:13.994Z,10.5929
2023-04-21T03:52:22.283Z,10.5429
2023-04-21T03:53:30.028Z,9.8143
2023-04-21T03:54:38.277Z,9.6000
2023-04-21T03:55:46.528Z,9.5500
2023-04-21T03:56:54.345Z,9.6000
2023-04-21T03:58:02.270Z,9.5786
2023-04-21T03:59:10.354Z,9.8429
2023-04-21T04:00:18.620Z,10.1214
2023-04-21T04:01:26.707Z,10.1071
2023-04-21T04:02:34.888Z,9.7929
2023-04-21T04:03:42.904Z,10.1571
2023-04-21T04:04:50.742Z,10.4357
2023-04-21T04:05:58.799Z,10.1643
2023-04-21T04:07:06.893Z,10.3571
2023-04-21T04:08:14.911Z,10.4429
2023-04-21T04:09:22.943Z,10.0143
2023-04-21T04:10:31.025Z,10.4286
2023-04-21T04:11:39.233Z,10.3143
2023-04-21T04:12:47.150Z,9.7500
2023-04-21T04:13:55.258Z,9.4429
2023-04-21T04:15:03.308Z,8.8357
2023-04-21T04:16:11.543Z,8.6786
2023-04-21T04:17:19.503Z,8.6857
2023-04-21T04:18:27.375Z,8.5571
2023-04-21T04:19:35.534Z,8.3286
2023-04-21T04:20:43.633Z,8.4286
2023-04-21T04:21:51.586Z,8.3143
2023-04-21T04:22:59.958Z,8.7500
2023-04-21T04:24:07.665Z,8.4643
2023-04-21T04:25:15.973Z,8.3429
2023-04-21T04:26:23.925Z,8.8286
2023-04-21T04:27:31.857Z,8.7214
2023-04-21T04:28:40.116Z,8.6857
2023-04-21T04:29:48.031Z,8.8857
2023-04-21T04:30:56.149Z,8.9643
2023-04-21T04:32:04.215Z,8.6571
2023-04-21T04:33:12.287Z,9.0071
2023-04-21T04:34:20.336Z,8.8857
2023-04-21T04:35:28.365Z,8.5714
2023-04-21T04:36:36.313Z,8.8786
2023-04-21T04:37:44.460Z,9.2000
2023-04-21T04:38:52.510Z,9.0357
2023-04-21T04:40:00.740Z,9.3357
2023-04-21T04:41:08.650Z,9.6000
2023-04-21T04:42:16.583Z,8.9571
2023-04-21T04:43:24.812Z,9.5286
2023-04-21T04:44:32.772Z,8.7286
2023-04-21T04:45:40.898Z,9.6286
2023-04-21T04:46:49.007Z,9.3643
2023-04-21T04:47:56.985Z,9.6857
2023-04-21T04:49:05.003Z,9.8143
2023-04-21T04:50:13.158Z,8.8929
2023-04-21T04:51:21.833Z,9.6786
2023-04-21T04:52:29.227Z,10.0714
2023-04-21T04:53:37.199Z,10.0071
2023-04-21T04:54:45.304Z,10.0500
2023-04-21T04:55:53.363Z,10.0714
2023-04-21T04:57:01.455Z,10.1643
2023-04-21T04:58:09.491Z,10.3500
2023-04-21T04:59:17.702Z,10.6929
2023-04-21T05:00:25.612Z,10.8429
2023-04-21T05:01:33.701Z,10.6214
2023-04-21T05:02:41.906Z,10.4429
2023-04-21T05:03:49.988Z,10.1357
2023-04-21T05:04:58.145Z,10.3500
2023-04-21T05:06:05.941Z,10.5214
2023-04-21T05:07:13.903Z,10.3071
2023-04-21T05:08:22.143Z,9.5929
2023-04-21T05:09:30.066Z,9.9643
2023-04-21T05:10:38.238Z,9.4857
2023-04-21T05:11:46.275Z,9.4571
2023-04-21T05:12:54.155Z,9.9714
2023-04-21T05:14:02.333Z,9.2857
2023-04-21T05:15:10.459Z,9.3571
2023-04-21T05:16:18.486Z,9.7143
2023-04-21T05:17:26.499Z,10.0571
2023-04-21T05:18:34.577Z,10.4786
2023-04-21T05:19:42.769Z,10.9786
2023-04-21T05:20:50.789Z,10.1643
2023-04-21T05:21:58.738Z,10.1929
2023-04-21T05:23:06.855Z,10.3714
2023-04-21T05:24:14.848Z,10.5071
2023-04-21T05:25:22.960Z,9.8786
2023-04-21T05:26:31.079Z,10.4214
2023-04-21T05:27:38.984Z,10.7357
2023-04-21T05:28:47.230Z,11.0429
2023-04-21T05:29:55.258Z,10.4929
2023-04-21T05:31:03.217Z,10.8000
2023-04-21T05:32:11.303Z,11.2286
2023-04-21T05:33:19.348Z,10.8071
2023-04-21T05:34:27.347Z,10.2429
2023-04-21T05:35:37.762Z,9.8643
2023-04-21T05:36:43.444Z,9.5357
2023-04-21T05:37:51.542Z,9.8643
2023-04-21T05:38:59.612Z,10.5429
2023-04-21T05:40:07.837Z,11.1214
2023-04-21T05:41:15.730Z,11.0357
2023-04-21T05:42:23.704Z,10.6643
2023-04-21T05:43:31.865Z,11.0429
2023-04-21T05:44:39.919Z,10.2714
2023-04-21T05:45:48.049Z,10.4643
2023-04-21T05:46:56.034Z,10.8857
2023-04-21T05:48:04.057Z,11.2000
2023-04-21T05:49:12.180Z,10.7429
2023-04-21T05:50:20.163Z,10.4143
2023-04-21T05:51:28.219Z,10.3929
2023-04-21T05:52:36.284Z,10.2571
2023-04-21T05:53:44.350Z,9.9214
2023-04-21T05:54:52.578Z,10.4357
2023-04-21T05:56:00.498Z,10.7071
2023-04-21T05:57:08.563Z,10.9929
2023-04-21T05:58:16.798Z,10.3857
2023-04-21T05:59:24.642Z,10.3286
2023-04-21T06:00:32.920Z,10.3429
2023-04-21T06:01:40.832Z,10.3357
2023-04-21T06:02:48.916Z,9.4500
2023-04-21T06:03:57.056Z,9.6643
2023-04-21T06:05:05.253Z,10.2286
2023-04-21T06:06:13.197Z,10.2357
2023-04-21T06:07:21.182Z,10.0714
2023-04-21T06:08:29.165Z,9.9143
2023-04-21T06:09:37.310Z,9.4429
2023-04-21T06:10:45.258Z,8.7500
2023-04-21T06:11:53.360Z,9.1714
2023-04-21T06:13:01.487Z,9.3571
2023-04-21T06:14:09.445Z,9.2500
2023-04-21T06:15:17.603Z,9.6357
2023-04-21T06:16:25.587Z,9.1857
2023-04-21T06:17:33.777Z,9.1429
2023-04-21T06:18:41.807Z,8.7929
2023-04-21T06:19:49.828Z,8.8286
2023-04-21T06:20:57.826Z,9.0000
2023-04-21T06:22:05.821Z,9.2286
2023-04-21T06:23:13.863Z,8.5571
2023-04-21T06:24:22.168Z,9.1571
2023-04-21T06:25:30.058Z,8.5286
2023-04-21T06:26:38.296Z,8.3000
2023-04-21T06:27:46.238Z,8.6357
2023-04-21T06:28:54.255Z,8.4286
2023-04-21T06:30:02.385Z,8.0571
2023-04-21T06:31:10.466Z,7.9214
2023-04-21T06:32:18.398Z,7.4929
2023-04-21T06:33:26.460Z,7.7929
2023-04-21T06:34:34.674Z,7.6714
2023-04-21T06:35:42.677Z,8.4357
2023-04-21T06:36:50.658Z,7.9286
2023-04-21T06:37:58.758Z,8.4214
2023-04-21T06:39:06.805Z,8.7143
2023-04-21T06:40:14.721Z,9.5571
2023-04-21T06:41:24.710Z,8.9000
2023-04-21T06:42:31.098Z,8.5071
2023-04-21T06:43:38.965Z,8.6143
2023-04-21T06:44:48.838Z,8.8500
2023-04-21T06:45:59.981Z,8.7533
2023-04-21T06:47:08.069Z,9.1000
2023-04-21T06:48:16.122Z,8.8500
2023-04-21T06:49:24.050Z,8.7929
2023-04-21T06:50:32.181Z,9.1786
2023-04-21T06:51:40.226Z,9.1786
2023-04-21T06:52:48.504Z,8.4357
2023-04-21T06:53:56.350Z,8.0786
2023-04-21T06:55:04.416Z,7.9500
2023-04-21T06:56:12.750Z,8.6357
2023-04-21T06:57:20.587Z,9.1643
2023-04-21T06:58:28.693Z,8.5929
2023-04-21T06:59:36.725Z,8.1571
2023-04-21T07:00:44.788Z,8.5429
2023-04-21T07:01:52.827Z,8.5857
2023-04-21T07:03:00.931Z,9.1071
2023-04-21T07:04:09.120Z,8.6857
2023-04-21T07:05:17.006Z,8.7286
2023-04-21T07:06:25.071Z,8.5714
2023-04-21T07:07:33.067Z,8.2429
2023-04-21T07:08:41.196Z,8.1643
2023-04-21T07:09:49.214Z,8.1500
2023-04-21T07:10:57.497Z,8.1071
2023-04-21T07:12:05.221Z,8.6214
2023-04-21T07:13:13.375Z,8.1071
2023-04-21T07:14:21.606Z,8.1500
2023-04-21T07:15:29.567Z,8.5857
2023-04-21T07:16:37.609Z,8.6214
2023-04-21T07:17:45.547Z,8.6929
2023-04-21T07:18:55.105Z,9.3000
2023-04-21T07:20:06.813Z,9.5667
2023-04-21T07:21:14.674Z,8.9000
2023-04-21T07:22:22.839Z,9.2143
2023-04-21T07:23:30.816Z,8.6143
2023-04-21T07:24:38.847Z,8.9429
2023-04-21T07:25:46.951Z,8.5143
2023-04-21T07:26:54.860Z,9.0000
2023-04-21T07:28:03.019Z,9.6786
2023-04-21T07:29:10.979Z,9.4286
2023-04-21T07:30:19.138Z,9.5714
2023-04-21T07:31:27.479Z,9.5643
2023-04-21T07:32:35.262Z,9.2786
2023-04-21T07:33:43.334Z,9.3500
2023-04-21T07:34:51.273Z,10.1214
2023-04-21T07:35:59.403Z,9.5857
2023-04-21T07:37:07.531Z,9.6714
2023-04-21T07:38:15.444Z,10.3571
2023-04-21T07:39:23.630Z,9.5929
2023-04-21T07:40:31.674Z,9.9429
2023-04-21T07:41:39.693Z,9.8429
2023-04-21T07:42:47.826Z,10.0071
2023-04-21T07:43:55.951Z,9.8571
2023-04-21T07:45:03.902Z,10.7714
2023-04-21T07:46:12.005Z,11.6357
2023-04-21T07:47:19.999Z,11.5429
2023-04-21T07:48:28.022Z,11.3357
2023-04-21T07:49:36.204Z,11.9000
2023-04-21T07:50:44.336Z,10.9571
2023-04-21T07:51:52.281Z,10.9286
2023-04-21T07:53:00.307Z,10.8214
2023-04-21T07:54:08.407Z,9.6500
2023-04-21T07:55:16.476Z,9.6214
2023-04-21T07:56:24.545Z,9.4286
2023-04-21T07:57:32.578Z,9.6500
2023-04-21T07:58:40.561Z,9.2643
2023-04-21T07:59:48.707Z,9.6286
2023-04-21T08:00:56.676Z,9.3143
2023-04-21T08:02:05.106Z,10.2786
2023-04-21T08:03:13.278Z,9.6071
2023-04-21T08:04:21.109Z,9.4786
2023-04-21T08:05:33.200Z,9.4000
2023-04-21T08:06:42.011Z,9.8667
2023-04-21T08:07:50.014Z,9.4643
2023-04-21T08:08:58.010Z,9.6500
2023-04-21T08:10:06.026Z,8.8000
2023-04-21T08:11:14.335Z,9.2857
2023-04-21T08:12:22.318Z,9.0214
2023-04-21T08:13:30.246Z,8.9286
2023-04-21T08:14:38.331Z,9.2000
2023-04-21T08:15:46.485Z,9.0643
2023-04-21T08:16:56.775Z,9.7214
2023-04-21T08:18:07.473Z,9.3533
2023-04-21T08:19:15.425Z,9.4357
2023-04-21T08:20:23.528Z,9.9143
2023-04-21T08:21:31.588Z,10.4643
2023-04-21T08:22:39.774Z,10.4643
2023-04-21T08:23:47.688Z,10.4357
2023-04-21T08:24:55.678Z,10.7929
2023-04-21T08:26:03.796Z,11.0214
2023-04-21T08:27:11.850Z,10.9929
2023-04-21T08:28:19.949Z,11.0500
2023-04-21T08:29:28.022Z,10.2857
2023-04-21T08:30:35.985Z,10.3500
2023-04-21T08:31:44.211Z,10.8714
2023-04-21T08:32:52.264Z,11.8929
2023-04-21T08:34:02.453Z,12.1357
2023-04-21T08:35:13.192Z,11.9800
2023-04-21T08:36:28.867Z,11.1786
2023-04-21T08:37:34.226Z,10.0400
2023-04-21T08:38:42.264Z,10.1429
2023-04-21T08:39:50.317Z,10.2929
2023-04-21T08:40:58.316Z,10.4571
2023-04-21T08:42:06.615Z,10.5643
2023-04-21T08:43:14.435Z,11.1000
2023-04-21T08:44:22.568Z,11.3929
2023-04-21T08:45:30.573Z,10.6786
2023-04-21T08:46:38.624Z,11.1286
2023-04-21T08:47:46.688Z,11.6143
2023-04-21T08:48:55.424Z,11.7857
2023-04-21T08:50:02.767Z,12.1500
2023-04-21T08:51:10.764Z,11.3714
2023-04-21T08:52:18.933Z,11.2214
2023-04-21T08:53:26.969Z,11.6286
2023-04-21T08:54:35.011Z,10.6357
2023-04-21T08:55:43.024Z,10.6500
2023-04-21T08:56:52.421Z,9.9714
2023-04-21T08:58:04.064Z,10.6000
2023-04-21T08:59:12.123Z,9.9143
2023-04-21T09:00:20.184Z,9.4786
2023-04-21T09:01:28.395Z,9.4643
2023-04-21T09:02:36.515Z,9.2143
2023-04-21T09:03:44.383Z,9.8286
2023-04-21T09:04:52.986Z,9.9500
2023-04-21T09:06:00.758Z,9.8571
2023-04-21T09:07:08.510Z,10.6214
2023-04-21T09:08:16.526Z,10.7643
2023-04-21T09:09:24.685Z,11.0929
2023-04-21T09:10:32.832Z,11.0143
2023-04-21T09:11:40.725Z,11.5571
2023-04-21T09:12:48.841Z,11.5143
2023-04-21T09:13:56.771Z,10.9000
2023-04-21T09:15:05.099Z,11.0214
2023-04-21T09:16:13.067Z,10.6786
2023-04-21T09:17:21.058Z,10.1000
2023-04-21T09:18:29.157Z,10.0929
2023-04-21T09:19:37.156Z,10.6786
2023-04-21T09:20:45.214Z,11.3429
2023-04-21T09:21:53.336Z,11.5857
2023-04-21T09:23:01.276Z,10.9500
2023-04-21T09:24:09.417Z,11.1429
2023-04-21T09:25:17.455Z,11.3071
2023-04-21T09:26:25.640Z,10.8000
2023-04-21T09:27:33.741Z,10.8214
2023-04-21T09:29:47.021Z,11.3533
2023-04-21T09:30:55.383Z,11.8929
2023-04-21T09:32:03.394Z,10.9429
2023-04-21T09:33:27.212Z,10.5857
2023-04-21T09:34:24.220Z,10.6667
2023-04-21T09:35:32.253Z,11.0643
2023-04-21T09:36:40.381Z,9.5929
2023-04-21T09:37:48.512Z,9.4286
2023-04-21T09:39:17.328Z,9.9857
2023-04-21T09:40:09.330Z,10.5533
2023-04-21T09:41:17.334Z,9.9357
2023-04-21T09:42:25.392Z,9.9214
2023-04-21T09:43:33.473Z,10.1500
2023-04-21T09:44:53.218Z,9.7786
2023-04-21T09:45:54.676Z,10.4000
2023-04-21T09:47:02.696Z,10.1214
2023-04-21T09:48:10.634Z,9.5000
2023-04-21T09:49:19.046Z,9.8571
2023-04-21T09:51:01.870Z,9.9929
2023-04-21T09:52:06.069Z,9.9133
2023-04-21T09:52:52.549Z,9.9400
2023-04-21T09:54:00.708Z,9.9786
2023-04-21T09:55:09.067Z,9.2286
2023-04-21T09:56:16.813Z,9.0500
2023-04-21T09:57:24.882Z,9.6571
2023-04-21T09:58:33.020Z,9.5143
2023-04-21T09:59:41.013Z,9.7929
2023-04-21T10:00:49.210Z,9.8500
2023-04-21T10:01:57.137Z,9.9214
2023-04-21T10:03:05.397Z,9.6929
2023-04-21T10:04:13.664Z,9.7500
2023-04-21T10:05:21.273Z,9.6929
2023-04-21T10:06:29.368Z,9.7071
2023-04-21T10:07:37.386Z,9.4643
2023-04-21T10:08:45.573Z,9.7000
2023-04-21T10:09:53.706Z,9.2643
2023-04-21T10:11:01.660Z,9.2214
2023-04-21T10:12:10.057Z,9.7929
2023-04-21T10:13:17.804Z,10.2857
2023-04-21T10:14:25.839Z,9.8143
2023-04-21T10:15:33.965Z,9.6857
2023-04-21T10:16:41.994Z,9.7286
2023-04-21T10:17:50.245Z,10.0786
2023-04-21T10:18:58.107Z,10.2000
2023-04-21T10:20:06.079Z,10.1000
2023-04-21T10:21:14.142Z,9.4071
2023-04-21T10:22:22.403Z,8.5214
2023-04-21T10:23:30.352Z,8.3000
2023-04-21T10:24:38.423Z,8.4000
2023-04-21T10:25:46.584Z,8.1143
2023-04-21T10:26:55.397Z,8.0000
2023-04-21T10:28:02.561Z,7.8143
2023-04-21T10:29:10.687Z,7.1857
2023-04-21T10:30:18.795Z,7.4357
2023-04-21T10:31:26.847Z,6.3429
2023-04-21T10:32:34.890Z,6.5714
2023-04-21T10:33:42.882Z,5.8357
2023-04-21T10:34:50.864Z,5.9786
2023-04-21T10:35:58.911Z,5.9357
2023-04-21T10:37:06.991Z,5.3000
2023-04-21T10:38:15.076Z,4.9857
2023-04-21T10:39:23.263Z,4.6429
2023-04-21T10:40:43.243Z,4.7429
2023-04-21T10:41:44.144Z,4.6000
2023-04-21T10:42:52.209Z,4.5143
2023-04-21T10:44:00.310Z,4.4929
2023-04-21T10:45:08.342Z,4.2429
2023-04-21T10:46:16.441Z,4.1929
2023-04-21T10:47:24.647Z,4.4286
2023-04-21T10:48:32.493Z,4.0214
2023-04-21T10:49:40.512Z,4.2000
2023-04-21T10:50:48.545Z,4.1857
2023-04-21T10:51:56.792Z,4.2357
2023-04-21T10:53:04.850Z,4.1000
2023-04-21T10:54:12.732Z,4.1143
2023-04-21T10:55:20.927Z,4.1500
2023-04-21T10:56:28.975Z,4.4429
2023-04-21T10:57:37.065Z,4.2429
2023-04-21T10:58:45.284Z,4.4500
2023-04-21T10:59:53.160Z,4.3071
2023-04-21T11:01:01.256Z,4.1214
2023-04-21T11:02:09.415Z,4.2000
2023-04-21T11:03:17.383Z,4.1643
2023-04-21T11:04:25.924Z,4.3143
2023-04-21T11:05:33.353Z,4.4857
2023-04-21T11:06:41.528Z,4.4214
2023-04-21T11:07:49.574Z,4.5500
2023-04-21T11:08:57.715Z,4.5214
2023-04-21T11:10:05.697Z,4.5000
2023-04-21T11:11:13.871Z,4.6643
2023-04-21T11:12:21.831Z,4.7286
2023-04-21T11:13:29.883Z,4.7071
2023-04-21T11:14:38.100Z,5.1429
2023-04-21T11:15:46.133Z,5.1571
2023-04-21T11:16:54.088Z,4.9929
2023-04-21T11:18:02.063Z,5.1929
2023-04-21T11:19:10.108Z,4.7143
2023-04-21T11:20:18.135Z,4.8071
2023-04-21T11:21:26.473Z,4.7500
2023-04-21T11:22:34.367Z,4.7286
2023-04-21T11:23:42.492Z,4.5000
2023-04-21T11:24:50.557Z,4.6214
2023-04-21T11:25:58.560Z,4.8929
2023-04-21T11:27:06.612Z,4.8286
2023-04-21T11:28:14.716Z,4.6214
2023-04-21T11:29:22.706Z,4.8286
2023-04-21T11:30:30.957Z,4.7571
2023-04-21T11:31:38.904Z,4.5214
2023-04-21T11:32:46.869Z,4.7929
2023-04-21T11:33:54.858Z,4.7929
2023-04-21T11:35:02.942Z,4.7286
2023-04-21T11:36:11.251Z,4.4071
2023-04-21T11:37:19.177Z,4.9643
2023-04-21T11:38:27.265Z,4.9643
2023-04-21T11:39:35.293Z,4.6214
2023-04-21T11:40:43.335Z,5.3000
2023-04-21T11:41:51.505Z,5.1643
2023-04-21T11:42:59.498Z,5.0429
2023-04-21T11:44:08.055Z,5.1286
2023-04-21T11:45:15.579Z,4.9143
2023-04-21T11:46:23.787Z,5.1071
2023-04-21T11:47:31.725Z,4.9714
2023-04-21T11:48:39.950Z,5.0714
2023-04-21T11:49:47.775Z,4.9357
2023-04-21T11:50:56.101Z,5.0286
2023-04-21T11:52:04.021Z,4.9286
2023-04-21T11:53:12.005Z,5.1929
2023-04-21T11:54:20.171Z,5.2786
2023-04-21T11:55:28.152Z,5.1786
2023-04-21T11:56:36.226Z,5.0500
2023-04-21T11:57:44.297Z,5.4286
2023-04-21T11:58:52.351Z,5.0571
2023-04-21T12:00:00.474Z,5.2214
2023-04-21T12:01:08.389Z,5.4214
2023-04-21T12:02:16.537Z,5.5071
2023-04-21T12:03:24.616Z,5.6143
2023-04-21T12:04:34.542Z,6.0286
2023-04-21T12:05:45.777Z,5.8733
2023-04-21T12:06:53.816Z,5.6500
2023-04-21T12:08:01.784Z,5.6786
2023-04-21T12:09:10.413Z,6.0857
2023-04-21T12:10:17.854Z,6.6214
2023-04-21T12:11:26.068Z,6.9643
2023-04-21T12:12:35.815Z,6.4857
2023-04-21T12:13:46.947Z,6.8467
2023-04-21T12:14:54.854Z,7.5286
2023-04-21T12:16:03.035Z,7.0643
2023-04-21T12:17:10.961Z,7.0786
2023-04-21T12:18:19.156Z,7.2857
2023-04-21T12:19:27.096Z,6.6786
2023-04-21T12:20:35.663Z,6.3571
2023-04-21T12:21:43.384Z,6.1643
2023-04-21T12:22:51.340Z,6.4857
2023-04-21T12:23:59.540Z,6.3571
2023-04-21T12:25:07.536Z,5.9929
2023-04-21T12:26:15.563Z,5.9000
2023-04-21T12:27:23.633Z,5.9714
2023-04-21T12:28:31.742Z,5.5929
2023-04-21T12:29:39.639Z,5.9357
2023-04-21T12:30:47.718Z,6.0214
2023-04-21T12:31:55.799Z,6.0786
2023-04-21T12:33:04.101Z,5.9786
2023-04-21T12:34:12.173Z,6.0786
2023-04-21T12:35:19.999Z,5.9000
2023-04-21T12:36:28.080Z,5.7286
2023-04-21T12:37:36.163Z,5.6929
2023-04-21T12:38:44.298Z,6.0857
2023-04-21T12:39:52.273Z,5.8929
2023-04-21T12:41:00.215Z,6.1000
2023-04-21T12:42:08.289Z,6.2214
2023-04-21T12:43:16.471Z,6.1357
2023-04-21T12:44:24.439Z,6.2143
2023-04-21T12:45:32.506Z,6.1429
2023-04-21T12:46:40.525Z,6.3929
2023-04-21T12:47:48.745Z,6.1857
2023-04-21T12:48:56.735Z,6.2071
2023-04-21T12:50:04.900Z,6.9929
2023-04-21T12:51:12.895Z,6.6929
2023-04-21T12:52:20.900Z,6.0929
2023-04-21T12:53:31.092Z,6.1786
2023-04-21T12:54:42.010Z,6.6600
2023-04-21T12:56:03.514Z,6.2071
2023-04-21T12:57:02.838Z,6.2000
2023-04-21T12:58:10.869Z,6.4000
2023-04-21T12:59:18.950Z,7.1000
2023-04-21T13:00:27.122Z,7.1429
2023-04-21T13:01:35.272Z,6.8286
2023-04-21T13:02:43.410Z,7.0286
2023-04-21T13:03:51.427Z,6.7500
2023-04-21T13:04:59.307Z,6.8929
2023-04-21T13:06:07.462Z,7.0786
2023-04-21T13:07:15.641Z,7.8571
2023-04-21T13:08:23.503Z,7.5286
2023-04-21T13:09:31.823Z,7.1786
2023-04-21T13:10:39.549Z,7.2786
2023-04-21T13:11:48.440Z,7.2286
2023-04-21T13:12:55.736Z,7.2929
2023-04-21T13:14:03.933Z,7.0071
2023-04-21T13:15:11.928Z,7.2429
2023-04-21T13:16:20.065Z,6.8071
2023-04-21T13:17:28.173Z,6.7286
2023-04-21T13:18:36.143Z,6.4571
2023-04-21T13:19:44.169Z,6.6071
2023-04-21T13:20:52.177Z,6.8286
2023-04-21T13:22:00.252Z,6.6571
2023-04-21T13:23:08.348Z,6.7500
2023-04-21T13:24:16.596Z,6.3357
2023-04-21T13:25:24.388Z,6.8000
2023-04-21T13:26:32.422Z,6.4500
2023-04-21T13:27:40.479Z,6.3071
2023-04-21T13:28:48.700Z,6.6000
2023-04-21T13:29:56.721Z,6.3571
2023-04-21T13:31:04.802Z,6.5929
2023-04-21T13:32:12.935Z,6.0429
2023-04-21T13:33:20.845Z,6.4929
2023-04-21T13:34:29.031Z,6.5286
2023-04-21T13:35:37.002Z,6.2429
2023-04-21T13:36:45.031Z,5.5071
2023-04-21T13:37:53.175Z,5.7571
2023-04-21T13:39:01.224Z,5.9786
2023-04-21T13:40:09.266Z,6.1357
2023-04-21T13:41:17.482Z,6.0143
2023-04-21T13:42:25.380Z,5.9143
2023-04-21T13:43:33.469Z,6.2500
2023-04-21T13:44:41.629Z,6.2643
2023-04-21T13:45:49.727Z,5.9071
2023-04-21T13:46:57.797Z,5.8071
2023-04-21T13:48:05.929Z,5.7000
2023-04-21T13:49:13.818Z,5.6714
2023-04-21T13:50:21.886Z,5.5714
2023-04-21T13:51:30.005Z,5.8929
2023-04-21T13:52:38.024Z,5.6714
2023-04-21T13:53:46.049Z,5.7571
2023-04-21T13:54:54.214Z,5.7714
2023-04-21T13:56:02.133Z,6.0429
2023-04-21T13:57:10.243Z,6.1786
2023-04-21T13:58:18.312Z,5.5429
2023-04-21T13:59:26.383Z,5.0786
2023-04-21T14:00:34.461Z,5.1429
2023-04-21T14:01:42.538Z,5.2429
2023-04-21T14:02:50.769Z,5.1071
2023-04-21T14:03:59.047Z,4.8643
2023-04-21T14:05:06.874Z,4.8714